KLM68E EHEH-EDDF
Flight info
| Callsign | KLM68E |
|---|---|
| Flight time | 0h 52m |
| Altitude | 21000 |
| Route | LNO L607 ARCKY T181 TOBOP T180 NIVNU T847 IMCOM IMCOM1B |
| Aircraft | A21N/M-SDE2E3FGHIRWXY/LB1 |
Departure
| Time | 2026-05-04 14:39 |
|---|---|
| Airport | Eindhoven Airport (EHEH) |
Arrival
| Time | 2026-05-04 15:32 |
|---|---|
| Airport | Frankfurt Main Airport (EDDF) |
| Time | Latitude | Longitude | Altitude | Speed | Heading |
|---|---|---|---|---|---|
| 2026-05-04 14:25 | 51.45862 | 5.39038 | 69 ft | 0 kts | 126° |
| 2026-05-04 14:33 | 51.45868 | 5.39026 | 67 ft | 2 kts | 123° |
| 2026-05-04 14:33 | 51.45876 | 5.39004 | 70 ft | 2 kts | 118° |
| 2026-05-04 14:33 | 51.45883 | 5.38980 | 67 ft | 2 kts | 108° |
| 2026-05-04 14:34 | 51.45886 | 5.38954 | 67 ft | 2 kts | 80° |
| 2026-05-04 14:34 | 51.45878 | 5.38931 | 83 ft | 2 kts | 44° |
| 2026-05-04 14:34 | 51.45873 | 5.38922 | 84 ft | 0 kts | 38° |
| 2026-05-04 14:34 | 51.45872 | 5.38922 | 84 ft | 0 kts | 38° |
| 2026-05-04 14:35 | 51.45873 | 5.38922 | 84 ft | 0 kts | 38° |
| 2026-05-04 14:35 | 51.45875 | 5.38925 | 84 ft | 1 kts | 38° |
| 2026-05-04 14:35 | 51.45883 | 5.38935 | 69 ft | 0 kts | 38° |
| 2026-05-04 14:36 | 51.45888 | 5.38941 | 69 ft | 2 kts | 38° |
| 2026-05-04 14:36 | 51.45904 | 5.38961 | 70 ft | 4 kts | 38° |
| 2026-05-04 14:36 | 51.45933 | 5.38990 | 69 ft | 6 kts | 16° |
| 2026-05-04 14:36 | 51.45972 | 5.38978 | 70 ft | 5 kts | 326° |
| 2026-05-04 14:37 | 51.45991 | 5.38940 | 77 ft | 3 kts | 306° |
| 2026-05-04 14:37 | 51.46006 | 5.38907 | 81 ft | 5 kts | 305° |
| 2026-05-04 14:37 | 51.46031 | 5.38850 | 83 ft | 7 kts | 304° |
| 2026-05-04 14:37 | 51.46066 | 5.38766 | 85 ft | 11 kts | 305° |
| 2026-05-04 14:38 | 51.46085 | 5.38663 | 82 ft | 9 kts | 246° |
| 2026-05-04 14:38 | 51.46046 | 5.38606 | 84 ft | 7 kts | 214° |
| 2026-05-04 14:38 | 51.45982 | 5.38535 | 83 ft | 26 kts | 215° |
| 2026-05-04 14:38 | 51.45669 | 5.38185 | 85 ft | 82 kts | 215° |
| 2026-05-04 14:39 | 51.45041 | 5.37482 | 69 ft | 139 kts | 215° |
| 2026-05-04 14:39 | 51.44137 | 5.36505 | 294 ft | 163 kts | 215° |
| 2026-05-04 14:39 | 51.43199 | 5.35486 | 815 ft | 161 kts | 215° |
| 2026-05-04 14:40 | 51.41298 | 5.33577 | 2277 ft | 157 kts | 199° |
| 2026-05-04 14:40 | 51.40310 | 5.33425 | 3184 ft | 142 kts | 163° |
| 2026-05-04 14:40 | 51.39549 | 5.34463 | 3540 ft | 158 kts | 114° |
| 2026-05-04 14:40 | 51.39193 | 5.36260 | 3811 ft | 180 kts | 108° |
| 2026-05-04 14:41 | 51.38848 | 5.38222 | 4340 ft | 184 kts | 107° |
| 2026-05-04 14:41 | 51.38538 | 5.40177 | 5037 ft | 177 kts | 105° |
| 2026-05-04 14:41 | 51.37756 | 5.43749 | 6342 ft | 166 kts | 115° |
| 2026-05-04 14:42 | 51.36730 | 5.47332 | 6991 ft | 192 kts | 116° |
| 2026-05-04 14:42 | 51.36114 | 5.49296 | 7340 ft | 202 kts | 122° |
| 2026-05-04 14:42 | 51.35221 | 5.51056 | 7781 ft | 206 kts | 138° |
| 2026-05-04 14:43 | 51.34031 | 5.52317 | 8317 ft | 206 kts | 158° |
| 2026-05-04 14:43 | 51.32669 | 5.52933 | 8774 ft | 212 kts | 166° |
| 2026-05-04 14:43 | 51.31174 | 5.53515 | 9021 ft | 230 kts | 167° |
| 2026-05-04 14:43 | 51.29517 | 5.54068 | 9238 ft | 252 kts | 169° |
| 2026-05-04 14:44 | 51.27735 | 5.54582 | 9471 ft | 274 kts | 171° |
| 2026-05-04 14:44 | 51.25810 | 5.55087 | 10007 ft | 285 kts | 171° |
| 2026-05-04 14:44 | 51.23802 | 5.55590 | 10399 ft | 302 kts | 171° |
| 2026-05-04 14:44 | 51.21653 | 5.56116 | 10704 ft | 322 kts | 172° |
| 2026-05-04 14:45 | 51.19371 | 5.56667 | 10992 ft | 341 kts | 172° |
| 2026-05-04 14:45 | 51.16958 | 5.57247 | 11271 ft | 360 kts | 172° |
| 2026-05-04 14:45 | 51.14421 | 5.57855 | 11589 ft | 376 kts | 172° |
| 2026-05-04 14:45 | 51.11816 | 5.58477 | 12087 ft | 385 kts | 171° |
| 2026-05-04 14:46 | 51.09128 | 5.59118 | 12752 ft | 390 kts | 171° |
| 2026-05-04 14:46 | 51.06434 | 5.59760 | 13416 ft | 394 kts | 171° |
| 2026-05-04 14:46 | 51.03710 | 5.60407 | 14025 ft | 398 kts | 172° |
| 2026-05-04 14:46 | 51.00959 | 5.61061 | 14688 ft | 400 kts | 172° |
| 2026-05-04 14:47 | 50.98208 | 5.61714 | 15503 ft | 399 kts | 172° |
| 2026-05-04 14:47 | 50.95476 | 5.62358 | 16259 ft | 404 kts | 172° |
| 2026-05-04 14:47 | 50.92684 | 5.63017 | 17021 ft | 409 kts | 172° |
| 2026-05-04 14:47 | 50.89854 | 5.63692 | 17752 ft | 412 kts | 172° |
| 2026-05-04 14:48 | 50.87004 | 5.64360 | 18450 ft | 415 kts | 172° |
| 2026-05-04 14:48 | 50.84146 | 5.65036 | 19125 ft | 414 kts | 172° |
| 2026-05-04 14:48 | 50.81292 | 5.65708 | 19665 ft | 415 kts | 172° |
| 2026-05-04 14:48 | 50.78425 | 5.66382 | 20134 ft | 418 kts | 172° |
| 2026-05-04 14:49 | 50.75545 | 5.67058 | 20579 ft | 420 kts | 173° |
| 2026-05-04 14:49 | 50.72646 | 5.67738 | 20914 ft | 421 kts | 173° |
| 2026-05-04 14:49 | 50.69747 | 5.68417 | 20983 ft | 422 kts | 173° |
| 2026-05-04 14:49 | 50.66836 | 5.69099 | 20985 ft | 423 kts | 173° |
| 2026-05-04 14:50 | 50.63924 | 5.69779 | 20983 ft | 423 kts | 173° |
| 2026-05-04 14:50 | 50.61021 | 5.70615 | 20976 ft | 425 kts | 166° |
| 2026-05-04 14:50 | 50.58268 | 5.72302 | 20976 ft | 427 kts | 153° |
| 2026-05-04 14:50 | 50.55820 | 5.74961 | 20980 ft | 430 kts | 143° |
| 2026-05-04 14:51 | 50.53540 | 5.78015 | 20983 ft | 431 kts | 140° |
| 2026-05-04 14:51 | 50.51353 | 5.81247 | 20984 ft | 432 kts | 138° |
| 2026-05-04 14:51 | 50.49203 | 5.84549 | 20983 ft | 432 kts | 138° |
| 2026-05-04 14:51 | 50.47054 | 5.87863 | 20980 ft | 433 kts | 138° |
| 2026-05-04 14:52 | 50.44897 | 5.91156 | 20982 ft | 433 kts | 139° |
| 2026-05-04 14:52 | 50.42720 | 5.94431 | 20990 ft | 433 kts | 139° |
| 2026-05-04 14:52 | 50.40537 | 5.97676 | 20985 ft | 432 kts | 139° |
| 2026-05-04 14:52 | 50.38377 | 6.00872 | 20985 ft | 433 kts | 138° |
| 2026-05-04 14:53 | 50.36403 | 6.04437 | 20982 ft | 436 kts | 128° |
| 2026-05-04 14:53 | 50.34901 | 6.08577 | 20988 ft | 440 kts | 115° |
| 2026-05-04 14:53 | 50.34071 | 6.13197 | 20989 ft | 446 kts | 101° |
| 2026-05-04 14:53 | 50.34049 | 6.18074 | 20990 ft | 452 kts | 84° |
| 2026-05-04 14:54 | 50.34889 | 6.22822 | 20986 ft | 457 kts | 68° |
| 2026-05-04 14:54 | 50.36416 | 6.27201 | 20991 ft | 459 kts | 63° |
| 2026-05-04 14:54 | 50.37590 | 6.31816 | 20974 ft | 454 kts | 80° |
| 2026-05-04 14:54 | 50.37899 | 6.36693 | 20973 ft | 448 kts | 94° |
| 2026-05-04 14:55 | 50.37788 | 6.41517 | 20972 ft | 448 kts | 97° |
| 2026-05-04 14:55 | 50.37173 | 6.46325 | 20977 ft | 443 kts | 108° |
| 2026-05-04 14:55 | 50.36430 | 6.50993 | 20960 ft | 433 kts | 106° |
| 2026-05-04 14:55 | 50.35836 | 6.55476 | 20931 ft | 415 kts | 104° |
| 2026-05-04 14:56 | 50.35360 | 6.59894 | 20349 ft | 413 kts | 102° |
| 2026-05-04 14:56 | 50.34969 | 6.64403 | 19579 ft | 422 kts | 100° |
| 2026-05-04 14:56 | 50.34641 | 6.69001 | 19491 ft | 429 kts | 99° |
| 2026-05-04 14:56 | 50.34336 | 6.73727 | 19430 ft | 443 kts | 98° |
| 2026-05-04 14:57 | 50.34049 | 6.78549 | 19191 ft | 446 kts | 98° |
| 2026-05-04 14:57 | 50.33730 | 6.83372 | 18951 ft | 444 kts | 101° |
| 2026-05-04 14:57 | 50.32982 | 6.88011 | 18720 ft | 437 kts | 113° |
| 2026-05-04 14:57 | 50.31809 | 6.92370 | 18474 ft | 434 kts | 117° |
| 2026-05-04 14:58 | 50.30539 | 6.96643 | 18243 ft | 434 kts | 118° |
| 2026-05-04 14:58 | 50.29253 | 7.00910 | 17984 ft | 433 kts | 118° |
| 2026-05-04 14:58 | 50.27973 | 7.05166 | 17713 ft | 431 kts | 118° |
| 2026-05-04 14:58 | 50.26703 | 7.09395 | 17449 ft | 429 kts | 118° |
| 2026-05-04 14:59 | 50.25440 | 7.13606 | 17176 ft | 427 kts | 117° |
| 2026-05-04 14:59 | 50.24198 | 7.17743 | 16638 ft | 425 kts | 117° |
| 2026-05-04 14:59 | 50.21707 | 7.26018 | 15459 ft | 417 kts | 117° |
| 2026-05-04 15:00 | 50.20476 | 7.30107 | 14883 ft | 413 kts | 117° |
| 2026-05-04 15:00 | 50.19325 | 7.34204 | 14328 ft | 411 kts | 114° |
| 2026-05-04 15:00 | 50.18314 | 7.38352 | 13764 ft | 408 kts | 113° |
| 2026-05-04 15:01 | 50.16361 | 7.46606 | 12566 ft | 403 kts | 113° |
| 2026-05-04 15:01 | 50.15390 | 7.50689 | 12030 ft | 400 kts | 113° |
| 2026-05-04 15:01 | 50.14423 | 7.54733 | 11520 ft | 397 kts | 114° |
| 2026-05-04 15:01 | 50.13462 | 7.58745 | 11117 ft | 394 kts | 114° |
| 2026-05-04 15:02 | 50.12502 | 7.62736 | 11003 ft | 393 kts | 114° |
| 2026-05-04 15:02 | 50.11524 | 7.66700 | 10987 ft | 390 kts | 117° |
| 2026-05-04 15:02 | 50.10241 | 7.70388 | 10999 ft | 386 kts | 126° |
| 2026-05-04 15:02 | 50.08747 | 7.73837 | 10998 ft | 381 kts | 128° |
| 2026-05-04 15:03 | 50.07234 | 7.77236 | 10991 ft | 385 kts | 129° |
| 2026-05-04 15:03 | 50.05689 | 7.80667 | 10985 ft | 387 kts | 128° |
| 2026-05-04 15:03 | 50.04154 | 7.84099 | 10986 ft | 387 kts | 128° |
| 2026-05-04 15:03 | 50.02639 | 7.87495 | 10996 ft | 387 kts | 128° |
| 2026-05-04 15:04 | 50.01111 | 7.90924 | 10988 ft | 386 kts | 128° |
| 2026-05-04 15:04 | 49.99584 | 7.94346 | 10983 ft | 386 kts | 127° |
| 2026-05-04 15:04 | 49.98364 | 7.98071 | 10981 ft | 391 kts | 110° |
| 2026-05-04 15:04 | 49.97974 | 8.02275 | 10983 ft | 398 kts | 91° |
| 2026-05-04 15:05 | 49.98451 | 8.06469 | 10978 ft | 387 kts | 75° |
| 2026-05-04 15:05 | 49.99325 | 8.10281 | 10979 ft | 364 kts | 72° |
| 2026-05-04 15:05 | 50.00212 | 8.13860 | 10978 ft | 353 kts | 71° |
| 2026-05-04 15:05 | 50.01243 | 8.17468 | 10984 ft | 377 kts | 63° |
| 2026-05-04 15:06 | 50.02634 | 8.21085 | 10986 ft | 401 kts | 59° |
| 2026-05-04 15:06 | 50.04174 | 8.24759 | 10965 ft | 407 kts | 58° |
| 2026-05-04 15:06 | 50.05746 | 8.28417 | 10978 ft | 406 kts | 58° |
| 2026-05-04 15:07 | 50.08885 | 8.35696 | 10980 ft | 404 kts | 60° |
| 2026-05-04 15:07 | 50.10161 | 8.39572 | 10977 ft | 402 kts | 69° |
| 2026-05-04 15:07 | 50.11185 | 8.43625 | 10978 ft | 401 kts | 71° |
| 2026-05-04 15:07 | 50.12157 | 8.47705 | 10968 ft | 400 kts | 72° |
| 2026-05-04 15:08 | 50.13111 | 8.51737 | 10775 ft | 393 kts | 72° |
| 2026-05-04 15:08 | 50.14048 | 8.55688 | 10348 ft | 381 kts | 72° |
| 2026-05-04 15:08 | 50.14951 | 8.59486 | 10112 ft | 365 kts | 72° |
| 2026-05-04 15:08 | 50.15816 | 8.63129 | 9883 ft | 350 kts | 72° |
| 2026-05-04 15:09 | 50.16644 | 8.66614 | 9618 ft | 336 kts | 72° |
| 2026-05-04 15:09 | 50.17438 | 8.69956 | 9459 ft | 322 kts | 72° |
| 2026-05-04 15:09 | 50.18190 | 8.73160 | 9324 ft | 308 kts | 72° |
| 2026-05-04 15:10 | 50.19627 | 8.79290 | 8820 ft | 297 kts | 72° |
| 2026-05-04 15:10 | 50.20341 | 8.82296 | 8511 ft | 294 kts | 72° |
| 2026-05-04 15:10 | 50.21736 | 8.88196 | 7589 ft | 291 kts | 72° |
| 2026-05-04 15:11 | 50.22431 | 8.91153 | 7138 ft | 289 kts | 72° |
| 2026-05-04 15:11 | 50.23036 | 8.94130 | 6687 ft | 285 kts | 84° |
| 2026-05-04 15:11 | 50.22915 | 8.97195 | 6185 ft | 279 kts | 111° |
| 2026-05-04 15:11 | 50.21963 | 8.99710 | 5759 ft | 269 kts | 139° |
| 2026-05-04 15:12 | 50.20457 | 9.01234 | 5565 ft | 252 kts | 161° |
| 2026-05-04 15:12 | 50.18772 | 9.01611 | 5290 ft | 238 kts | 191° |
| 2026-05-04 15:12 | 50.17278 | 9.00690 | 4891 ft | 234 kts | 216° |
| 2026-05-04 15:12 | 50.16023 | 8.99131 | 4554 ft | 229 kts | 223° |
| 2026-05-04 15:13 | 50.14842 | 8.97485 | 4162 ft | 226 kts | 224° |
| 2026-05-04 15:13 | 50.13678 | 8.95850 | 4008 ft | 226 kts | 223° |
| 2026-05-04 15:13 | 50.12622 | 8.94035 | 3996 ft | 226 kts | 237° |
| 2026-05-04 15:13 | 50.11898 | 8.91883 | 3995 ft | 224 kts | 249° |
| 2026-05-04 15:14 | 50.11357 | 8.89616 | 3988 ft | 223 kts | 250° |
| 2026-05-04 15:14 | 50.10827 | 8.87337 | 3994 ft | 221 kts | 250° |
| 2026-05-04 15:14 | 50.10323 | 8.85181 | 3925 ft | 206 kts | 250° |
| 2026-05-04 15:14 | 50.09832 | 8.83116 | 3695 ft | 202 kts | 250° |
| 2026-05-04 15:15 | 50.09344 | 8.81074 | 3402 ft | 202 kts | 250° |
| 2026-05-04 15:15 | 50.08856 | 8.79023 | 3107 ft | 201 kts | 250° |
| 2026-05-04 15:15 | 50.08370 | 8.76978 | 2826 ft | 201 kts | 251° |
| 2026-05-04 15:16 | 50.07398 | 8.72896 | 2311 ft | 200 kts | 251° |
| 2026-05-04 15:16 | 50.06915 | 8.70870 | 2039 ft | 199 kts | 251° |
| 2026-05-04 15:16 | 50.06033 | 8.66869 | 1504 ft | 190 kts | 259° |
| 2026-05-04 15:17 | 50.05833 | 8.64939 | 1262 ft | 171 kts | 263° |
| 2026-05-04 15:17 | 50.05254 | 8.61734 | 821 ft | 139 kts | 248° |
| 2026-05-04 15:17 | 50.04869 | 8.60261 | 1165 ft | 155 kts | 247° |
| 2026-05-04 15:18 | 50.04467 | 8.58731 | 1890 ft | 156 kts | 248° |
| 2026-05-04 15:18 | 50.04027 | 8.57078 | 2438 ft | 176 kts | 248° |
| 2026-05-04 15:18 | 50.03530 | 8.55251 | 2914 ft | 190 kts | 249° |
| 2026-05-04 15:19 | 50.02385 | 8.51109 | 3756 ft | 226 kts | 248° |
| 2026-05-04 15:19 | 50.01827 | 8.48779 | 4383 ft | 233 kts | 258° |
| 2026-05-04 15:19 | 50.02786 | 8.44095 | 4981 ft | 243 kts | 315° |
| 2026-05-04 15:20 | 50.04204 | 8.42649 | 5020 ft | 246 kts | 330° |
| 2026-05-04 15:20 | 50.05789 | 8.41637 | 5009 ft | 250 kts | 346° |
| 2026-05-04 15:20 | 50.07593 | 8.41743 | 4994 ft | 272 kts | 15° |
| 2026-05-04 15:20 | 50.09264 | 8.43185 | 5024 ft | 280 kts | 42° |
| 2026-05-04 15:21 | 50.10083 | 8.44725 | 4998 ft | 279 kts | 59° |
| 2026-05-04 15:21 | 50.10863 | 8.47481 | 4998 ft | 279 kts | 71° |
| 2026-05-04 15:21 | 50.12040 | 8.53272 | 4997 ft | 281 kts | 73° |
| 2026-05-04 15:22 | 50.12613 | 8.56187 | 4990 ft | 281 kts | 73° |
| 2026-05-04 15:22 | 50.13189 | 8.59098 | 4989 ft | 281 kts | 73° |
| 2026-05-04 15:22 | 50.14342 | 8.64922 | 4960 ft | 281 kts | 73° |
| 2026-05-04 15:23 | 50.14976 | 8.67800 | 4538 ft | 281 kts | 69° |
| 2026-05-04 15:23 | 50.15677 | 8.70633 | 4140 ft | 278 kts | 68° |
| 2026-05-04 15:23 | 50.16373 | 8.73420 | 3998 ft | 275 kts | 68° |
| 2026-05-04 15:23 | 50.17066 | 8.76209 | 3997 ft | 277 kts | 68° |
| 2026-05-04 15:24 | 50.18453 | 8.81835 | 3992 ft | 277 kts | 68° |
| 2026-05-04 15:24 | 50.19827 | 8.87465 | 4000 ft | 278 kts | 69° |
| 2026-05-04 15:25 | 50.20214 | 8.90391 | 3994 ft | 276 kts | 92° |
| 2026-05-04 15:25 | 50.19755 | 8.93252 | 3995 ft | 273 kts | 120° |
| 2026-05-04 15:25 | 50.18540 | 8.95462 | 4001 ft | 269 kts | 148° |
| 2026-05-04 15:26 | 50.15102 | 8.96935 | 3983 ft | 248 kts | 192° |
| 2026-05-04 15:26 | 50.13604 | 8.95843 | 4037 ft | 239 kts | 221° |
| 2026-05-04 15:26 | 50.11801 | 8.91604 | 3996 ft | 234 kts | 250° |
| 2026-05-04 15:27 | 50.11259 | 8.89251 | 3993 ft | 228 kts | 250° |
| 2026-05-04 15:27 | 50.10198 | 8.84700 | 3889 ft | 213 kts | 250° |
| 2026-05-04 15:28 | 50.09214 | 8.80516 | 3364 ft | 202 kts | 250° |
| 2026-05-04 15:28 | 50.08732 | 8.78500 | 3033 ft | 194 kts | 252° |
| 2026-05-04 15:28 | 50.07841 | 8.74756 | 2514 ft | 180 kts | 252° |
| 2026-05-04 15:29 | 50.07435 | 8.72951 | 2277 ft | 173 kts | 256° |
| 2026-05-04 15:30 | 50.06396 | 8.66645 | 1308 ft | 137 kts | 249° |
| 2026-05-04 15:30 | 50.05413 | 8.62445 | 864 ft | 138 kts | 251° |
| 2026-05-04 15:31 | 50.04747 | 8.59674 | 558 ft | 135 kts | 249° |
| 2026-05-04 15:31 | 50.04426 | 8.58313 | 371 ft | 128 kts | 245° |
| 2026-05-04 15:32 | 50.04013 | 8.56193 | 356 ft | 12 kts | 284° |
| 2026-05-04 15:32 | 50.04044 | 8.56145 | 353 ft | 0 kts | 337° |
| 2026-05-04 15:33 | 50.04098 | 8.56163 | 359 ft | 13 kts | 58° |
| 2026-05-04 15:34 | 50.04201 | 8.56588 | 356 ft | 10 kts | 70° |
| 2026-05-04 15:34 | 50.04227 | 8.56697 | 356 ft | 11 kts | 70° |
| 2026-05-04 15:34 | 50.04307 | 8.57032 | 353 ft | 22 kts | 70° |
| 2026-05-04 15:35 | 50.04436 | 8.57573 | 354 ft | 29 kts | 70° |
| 2026-05-04 15:35 | 50.04497 | 8.57829 | 351 ft | 18 kts | 70° |
| 2026-05-04 15:35 | 50.04540 | 8.58009 | 354 ft | 18 kts | 69° |
| 2026-05-04 15:36 | 50.04626 | 8.58368 | 353 ft | 18 kts | 70° |
| 2026-05-04 15:36 | 50.04676 | 8.58580 | 356 ft | 24 kts | 69° |
| 2026-05-04 15:36 | 50.04726 | 8.58768 | 353 ft | 14 kts | 68° |
| 2026-05-04 15:37 | 50.04758 | 8.58893 | 354 ft | 12 kts | 68° |
| 2026-05-04 15:37 | 50.04789 | 8.59018 | 359 ft | 12 kts | 69° |
| 2026-05-04 15:37 | 50.04815 | 8.59123 | 350 ft | 7 kts | 53° |
| 2026-05-04 15:37 | 50.04857 | 8.59135 | 354 ft | 6 kts | 346° |
| 2026-05-04 15:38 | 50.04890 | 8.59117 | 357 ft | 4 kts | 340° |
| 2026-05-04 15:38 | 50.04899 | 8.59112 | 356 ft | 0 kts | 340° |